KNTD/NTD METAR and TAF weather

Enter ICAO airport designator
Station Type Date Time Source
KNTD METAR 2022/01/26 14:52 UTC NOAA

KNTD 261452Z 07008KT 10SM CLR 13/M06 A3011 RMK AO2 SLP197 T01281056 53015 CHINO N VISNO N $


Station Type Date Time Source
KNTD Decoded METAR 2022/01/26 14:52 UTC NOAA

NAWCWPNS POINT MUGU, CA, CA, United States (KNTD) 34-07N 119-07W 2M
Jan 26, 2022 - 09:52 AM EST / 2022.01.26 1452 UTC
Wind: from the ENE (070 degrees) at 9 MPH (8 KT):0
Visibility: 10 mile(s):0
Sky conditions: clear
Temperature: 55.0 F (12.8 C)
Dew Point: 21.9 F (-5.6 C)
Relative Humidity: 27%
Pressure (altimeter): 30.11 in. Hg (1019 hPa)
Pressure tendency: 0.04 inches (1.5 hPa) higher than three hours ago
ob: KNTD 261452Z 07008KT 10SM CLR 13/M06 A3011 RMK AO2 SLP197 T01281056 53015 CHINO N VISNO N
cycle: 15

Station Type Date Time Source
KNTD TAF 2022/01/26 15:57 UTC NOAA

TAF KNTD 2615/2715 07008KT 9999 SKC QNH3006INS
TEMPO 2616/2622 VRB06KT
FM262200 20008KT 9999 SKC QNH3007INS
FM270100 VRB06KT 9999 SKC QNH3005INS
FM270900 03007KT 9999 SKC QNH3012INS T19/2622Z T11/2714Z FS30029

Example: see airport list